« Back
NWS Peachtree City, Ga » Text Product » AHN Terminal Aerodrome Forecast


Printer-friendly Version
Current Version              Previous Versions:   1  2  3  4  5  6  7  8  9  

Terminal Aerodrome Forecast

224
FTAK31 PAJN 020900 AAB
TAFAHN
TAF AMD
PAHN 020944Z 0210/0306 00000KT 1SM BR FEW002 BKN020
      TEMPO 0210/0213 1/2SM FG VV002
     FM021800 12009KT P6SM BKN050
     FM030400 10005KT P6SM OVC050
      AMD LTD TO CLD VIS AND WIND=



USA.gov is the U.S. government's official web portal to all federal, state and local government web resources and services.